Time;durP1;ratioP1;P1;durP2;ratioP2;P2;SDS_P1;SDS_P2;PMS_P1;PMS_P2;Temp;Humidity;BMP_temperature;BMP_pressure;BME280_temperature;BME280_humidity;BME280_pressure;Samples;Min_cycle;Max_cycle;Signal;HPM_P1;HPM_P2
2021/07/12 00:01:35;;;;;;;8.30;7.53;;;21.40;1.00;;;;;;5076805;28;20544;-78
2021/07/12 00:04:01;;;;;;;7.73;7.20;;;21.40;1.00;;;;;;5073949;28;20452;-78
2021/07/12 00:06:28;;;;;;;8.60;7.90;;;21.40;1.00;;;;;;5075815;28;20461;-78
2021/07/12 00:08:56;;;;;;;8.27;7.57;;;21.40;1.00;;;;;;5077702;28;23485;-79
2021/07/12 00:11:23;;;;;;;7.23;6.30;;;21.30;1.00;;;;;;5076013;28;20457;-78
2021/07/12 00:13:51;;;;;;;8.67;7.97;;;21.30;1.00;;;;;;5076446;28;20447;-78
2021/07/12 00:16:17;;;;;;;9.07;8.17;;;21.30;1.00;;;;;;5078373;28;20418;-78
2021/07/12 00:18:44;;;;;;;7.27;6.77;;;21.20;1.00;;;;;;5070444;28;20447;-77
2021/07/12 00:21:10;;;;;;;8.40;7.80;;;21.20;1.00;;;;;;5073857;28;20447;-77
2021/07/12 00:23:37;;;;;;;8.10;7.60;;;21.10;1.00;;;;;;5075242;28;21373;-77
2021/07/12 00:26:05;;;;;;;7.70;7.07;;;21.10;1.00;;;;;;5074972;28;20465;-77
2021/07/12 00:28:33;;;;;;;8.37;7.77;;;21.00;1.00;;;;;;5072175;28;21182;-77
2021/07/12 00:31:00;;;;;;;8.50;7.80;;;21.00;1.00;;;;;;5062117;28;20453;-77
2021/07/12 00:33:27;;;;;;;7.87;7.37;;;20.90;1.00;;;;;;5069898;28;21398;-77
2021/07/12 00:35:53;;;;;;;9.30;8.50;;;20.90;1.00;;;;;;5072171;28;20469;-77
2021/07/12 00:38:20;;;;;;;9.70;8.90;;;21.00;1.00;;;;;;5074380;28;20464;-77
2021/07/12 00:40:47;;;;;;;9.20;8.50;;;21.00;1.00;;;;;;5077291;28;20527;-77
2021/07/12 00:43:16;;;;;;;8.90;8.30;;;21.00;1.00;;;;;;5071892;28;20556;-77
2021/07/12 00:45:42;;;;;;;8.80;8.20;;;21.00;1.00;;;;;;5076942;28;20461;-77
2021/07/12 00:48:09;;;;;;;8.47;7.87;;;21.00;1.00;;;;;;5072066;28;20441;-77
2021/07/12 00:50:38;;;;;;;8.93;8.33;;;21.00;1.00;;;;;;5076501;28;20457;-77
2021/07/12 00:53:05;;;;;;;9.67;8.87;;;21.00;1.00;;;;;;5078708;28;20962;-77
2021/07/12 00:55:37;;;;;;;9.17;8.43;;;21.00;1.00;;;;;;5074898;28;20467;-77
2021/07/12 00:58:06;;;;;;;9.20;8.60;;;21.00;1.00;;;;;;5075741;28;20766;-77
2021/07/12 01:00:35;;;;;;;9.90;8.90;;;21.00;1.00;;;;;;5074403;28;20457;-77
2021/07/12 01:03:01;;;;;;;9.43;8.77;;;21.00;1.00;;;;;;5071060;28;20438;-77
2021/07/12 01:05:29;;;;;;;9.00;8.27;;;21.00;1.00;;;;;;5074575;28;20434;-77
2021/07/12 01:07:56;;;;;;;9.70;8.80;;;20.90;1.00;;;;;;5074892;28;20890;-77
2021/07/12 01:10:24;;;;;;;8.67;8.10;;;21.00;1.00;;;;;;5070705;28;20465;-77
2021/07/12 01:13:10;;;;;;;8.53;7.90;;;21.00;1.00;;;;;;5072246;28;20475;-76
2021/07/12 01:15:44;;;;;;;8.60;8.00;;;20.90;1.00;;;;;;5066143;28;21309;-77
2021/07/12 01:18:22;;;;;;;9.50;8.70;;;21.00;1.00;;;;;;5073454;28;20527;-77
2021/07/12 01:21:21;;;;;;;9.50;8.80;;;20.90;1.00;;;;;;5072499;28;20464;-77
2021/07/12 01:24:15;;;;;;;10.00;9.03;;;20.90;1.00;;;;;;5072116;28;20973;-77
2021/07/12 01:27:30;;;;;;;9.13;8.43;;;21.00;1.00;;;;;;5076769;28;20967;-77
2021/07/12 01:30:09;;;;;;;10.07;9.30;;;21.00;1.00;;;;;;5071178;28;20457;-77
2021/07/12 01:33:00;;;;;;;9.83;9.13;;;20.90;1.00;;;;;;5074922;28;20935;-78
2021/07/12 01:35:33;;;;;;;9.17;8.30;;;20.90;1.00;;;;;;5077007;28;20405;-78
2021/07/12 01:38:20;;;;;;;9.20;8.60;;;20.90;1.00;;;;;;5075355;28;20450;-78
2021/07/12 01:40:54;;;;;;;9.83;8.90;;;20.80;1.00;;;;;;5077191;28;20881;-76
2021/07/12 01:43:29;;;;;;;9.07;8.37;;;20.80;1.00;;;;;;5063542;28;20476;-76
2021/07/12 01:46:02;;;;;;;10.10;9.40;;;20.80;1.00;;;;;;5070744;28;20424;-77
2021/07/12 01:48:40;;;;;;;10.50;9.60;;;20.80;1.00;;;;;;5072452;28;21270;-77
2021/07/12 01:51:10;;;;;;;9.73;9.03;;;20.80;1.00;;;;;;5076303;28;20491;-78
2021/07/12 01:53:44;;;;;;;10.53;9.77;;;20.80;1.00;;;;;;5072669;28;20478;-77
2021/07/12 01:56:18;;;;;;;10.00;9.40;;;20.80;1.00;;;;;;5074733;28;20459;-77
2021/07/12 01:58:53;;;;;;;9.47;8.77;;;20.70;1.00;;;;;;5071553;28;20436;-77
2021/07/12 02:01:22;;;;;;;9.20;8.50;;;20.70;1.00;;;;;;5077945;28;21220;-77
2021/07/12 02:03:50;;;;;;;9.23;8.33;;;20.70;1.00;;;;;;5075133;28;20459;-78
2021/07/12 02:06:20;;;;;;;18.70;17.00;;;20.70;1.00;;;;;;5073670;28;20483;-77
2021/07/12 02:08:51;;;;;;;10.73;9.93;;;20.70;1.00;;;;;;5088379;27;20453;-77
2021/07/12 02:11:18;;;;;;;9.93;9.00;;;20.80;1.00;;;;;;5075223;28;20462;-77
2021/07/12 02:13:48;;;;;;;10.17;9.47;;;20.80;1.00;;;;;;5077778;28;20559;-77
2021/07/12 02:16:17;;;;;;;11.70;10.87;;;20.80;1.00;;;;;;5075721;28;20449;-77
2021/07/12 02:18:46;;;;;;;11.10;10.30;;;20.80;1.00;;;;;;5080865;28;20443;-77
2021/07/12 02:21:15;;;;;;;10.53;9.73;;;20.80;1.00;;;;;;5074973;28;20450;-77
2021/07/12 02:23:43;;;;;;;11.00;10.20;;;20.80;1.00;;;;;;5070315;28;20453;-77
2021/07/12 02:26:13;;;;;;;10.03;8.90;;;20.80;1.00;;;;;;5070213;28;20591;-77
2021/07/12 02:28:44;;;;;;;10.50;9.70;;;20.80;1.00;;;;;;5077574;28;20516;-77
2021/07/12 02:31:12;;;;;;;10.80;10.00;;;20.80;1.00;;;;;;5074480;28;20516;-77
2021/07/12 02:33:39;;;;;;;10.83;10.07;;;20.80;1.00;;;;;;5078762;28;20453;-77
2021/07/12 02:36:07;;;;;;;10.50;9.70;;;20.80;1.00;;;;;;5075084;28;20453;-77
2021/07/12 02:38:37;;;;;;;10.70;9.93;;;20.80;1.00;;;;;;5075193;28;20447;-77
2021/07/12 02:41:05;;;;;;;10.50;9.70;;;20.80;1.00;;;;;;5073376;28;20452;-77
2021/07/12 02:43:33;;;;;;;10.30;9.60;;;20.80;1.00;;;;;;5072213;28;20460;-77
2021/07/12 02:46:00;;;;;;;10.80;10.00;;;20.80;1.00;;;;;;5073930;28;20452;-77
2021/07/12 02:48:27;;;;;;;9.97;9.33;;;20.80;1.00;;;;;;5079556;28;21336;-78
2021/07/12 02:50:56;;;;;;;10.20;9.50;;;20.80;1.00;;;;;;5080466;28;20469;-78
2021/07/12 02:53:28;;;;;;;11.07;10.00;;;20.80;1.00;;;;;;5072207;28;20473;-78
2021/07/12 02:55:57;;;;;;;9.83;9.20;;;20.80;1.00;;;;;;5078861;28;20441;-79
2021/07/12 02:58:24;;;;;;;10.80;10.10;;;20.70;1.00;;;;;;5076463;28;20542;-76
2021/07/12 03:00:51;;;;;;;10.83;10.13;;;20.70;1.00;;;;;;5073119;28;20507;-77
2021/07/12 03:03:17;;;;;;;10.77;10.07;;;20.70;1.00;;;;;;5074260;28;20461;-77
2021/07/12 03:05:44;;;;;;;10.60;9.90;;;20.70;1.00;;;;;;5080325;28;20431;-76
2021/07/12 03:08:14;;;;;;;12.50;11.50;;;20.70;1.00;;;;;;5077122;28;21315;-77
2021/07/12 03:10:45;;;;;;;12.00;10.90;;;20.80;1.00;;;;;;5073778;28;20476;-77
2021/07/12 03:13:19;;;;;;;11.60;10.73;;;20.80;1.00;;;;;;5073170;28;20480;-77
2021/07/12 03:15:47;;;;;;;11.77;11.07;;;20.80;1.00;;;;;;5080698;28;20450;-77
2021/07/12 03:18:21;;;;;;;11.60;10.90;;;20.80;1.00;;;;;;5073862;28;20463;-77
2021/07/12 03:20:48;;;;;;;11.47;10.73;;;20.80;1.00;;;;;;5076321;28;20475;-77
2021/07/12 03:23:16;;;;;;;11.57;10.80;;;20.80;1.00;;;;;;5074526;28;20443;-76
2021/07/12 03:25:48;;;;;;;11.20;10.30;;;20.80;1.00;;;;;;5077211;28;20658;-78
2021/07/12 03:28:19;;;;;;;11.97;11.10;;;20.80;1.00;;;;;;5078371;28;20834;-77
2021/07/12 03:30:48;;;;;;;11.63;10.83;;;20.80;1.00;;;;;;5077635;28;21343;-77
2021/07/12 03:33:16;;;;;;;12.77;11.77;;;20.80;1.00;;;;;;5094479;28;20434;-77
2021/07/12 03:35:45;;;;;;;12.13;11.40;;;20.90;1.00;;;;;;5101544;28;20450;-77
2021/07/12 03:38:13;;;;;;;11.20;10.50;;;20.80;1.00;;;;;;5080249;28;20452;-78
2021/07/12 03:40:40;;;;;;;11.97;11.17;;;20.80;1.00;;;;;;5081172;28;20448;-77
2021/07/12 03:43:09;;;;;;;12.53;11.57;;;20.90;1.00;;;;;;5081870;28;20434;-77
2021/07/12 03:45:38;;;;;;;12.27;11.47;;;20.80;1.00;;;;;;5077636;28;20446;-77
2021/07/12 03:48:05;;;;;;;11.97;11.17;;;20.90;1.00;;;;;;5102580;28;21382;-77
2021/07/12 03:50:32;;;;;;;10.97;10.27;;;20.90;1.00;;;;;;5089561;28;20932;-77
2021/07/12 03:53:01;;;;;;;11.10;10.40;;;20.90;1.00;;;;;;5087933;28;20467;-77
2021/07/12 03:55:29;;;;;;;12.00;11.13;;;20.90;1.00;;;;;;5084566;28;20465;-77
2021/07/12 03:57:58;;;;;;;12.27;11.20;;;20.80;1.00;;;;;;5083715;28;20459;-77
2021/07/12 04:00:27;;;;;;;13.30;12.50;;;20.80;1.00;;;;;;5080555;28;20440;-78
2021/07/12 04:02:55;;;;;;;13.50;12.30;;;20.80;1.00;;;;;;5084817;28;20485;-78
2021/07/12 04:05:24;;;;;;;12.30;11.40;;;20.90;1.00;;;;;;5072752;28;20450;-78
2021/07/12 04:07:53;;;;;;;12.80;11.70;;;20.90;1.00;;;;;;5085130;28;20454;-78
2021/07/12 04:10:20;;;;;;;12.17;11.37;;;20.90;1.00;;;;;;5079593;28;20552;-77
2021/07/12 04:12:48;;;;;;;13.60;12.60;;;20.90;1.00;;;;;;5084318;28;20631;-78
2021/07/12 04:15:16;;;;;;;13.27;12.17;;;20.90;1.00;;;;;;5081767;28;20441;-77
2021/07/12 04:17:43;;;;;;;13.23;12.33;;;20.90;1.00;;;;;;5075407;28;20538;-76
2021/07/12 04:20:13;;;;;;;13.93;12.93;;;20.80;1.00;;;;;;5080430;28;20504;-77
2021/07/12 04:22:40;;;;;;;13.50;12.57;;;20.70;1.00;;;;;;5085610;28;20567;-77
2021/07/12 04:25:09;;;;;;;27.03;25.00;;;20.70;1.00;;;;;;5085325;28;20945;-76
2021/07/12 04:27:36;;;;;;;13.63;12.37;;;20.70;1.00;;;;;;5085675;28;20436;-76
2021/07/12 04:30:04;;;;;;;14.03;13.10;;;20.70;1.00;;;;;;5082474;28;20481;-76
2021/07/12 04:32:30;;;;;;;14.77;13.57;;;20.70;1.00;;;;;;5080460;28;20463;-76
2021/07/12 04:34:57;;;;;;;13.60;12.50;;;20.70;1.00;;;;;;5082345;28;20432;-76
2021/07/12 04:37:25;;;;;;;14.57;13.67;;;20.60;1.00;;;;;;5082875;28;20559;-76
2021/07/12 04:39:52;;;;;;;14.80;13.70;;;20.60;1.00;;;;;;5083479;28;21244;-76
2021/07/12 04:42:18;;;;;;;14.20;13.20;;;20.70;1.00;;;;;;5076374;28;20472;-76
2021/07/12 04:44:45;;;;;;;15.30;14.07;;;20.70;1.00;;;;;;5073937;28;20448;-69
2021/07/12 04:47:12;;;;;;;14.90;13.70;;;20.80;1.00;;;;;;5073412;28;20441;-69
2021/07/12 04:49:38;;;;;;;16.90;15.50;;;20.90;1.00;;;;;;5080032;28;20520;-69
2021/07/12 04:52:05;;;;;;;15.70;14.50;;;20.80;1.00;;;;;;5074480;28;20506;-69
2021/07/12 04:54:34;;;;;;;15.30;14.20;;;20.90;1.00;;;;;;5077042;28;20530;-70
2021/07/12 04:57:00;;;;;;;14.87;13.77;;;20.90;1.00;;;;;;5074077;28;20452;-70
2021/07/12 04:59:28;;;;;;;15.17;14.17;;;21.00;1.00;;;;;;5079964;28;20457;-70
2021/07/12 05:01:56;;;;;;;14.70;13.57;;;21.00;1.00;;;;;;5068397;28;20461;-69
2021/07/12 05:04:23;;;;;;;14.40;13.40;;;21.00;1.00;;;;;;5075183;28;20554;-70
2021/07/12 05:06:50;;;;;;;14.80;13.70;;;21.00;1.00;;;;;;5070313;28;20458;-68
2021/07/12 05:09:16;;;;;;;15.73;14.73;;;21.00;1.00;;;;;;5072006;28;20467;-68
2021/07/12 05:11:44;;;;;;;15.90;14.80;;;21.00;1.00;;;;;;5074138;28;20461;-68
2021/07/12 05:14:11;;;;;;;16.33;15.17;;;21.00;1.00;;;;;;5069193;28;20453;-69
2021/07/12 05:16:40;;;;;;;15.40;14.30;;;21.00;1.00;;;;;;5073532;28;20444;-68
2021/07/12 05:19:06;;;;;;;14.70;13.70;;;21.00;1.00;;;;;;5074979;28;21002;-69
2021/07/12 05:21:33;;;;;;;14.50;13.50;;;21.00;1.00;;;;;;5078913;28;20471;-69
2021/07/12 05:24:00;;;;;;;15.53;14.40;;;20.90;1.00;;;;;;5067669;28;20958;-71
2021/07/12 05:26:26;;;;;;;17.23;15.73;;;20.90;1.00;;;;;;5067907;28;20420;-71
2021/07/12 05:28:54;;;;;;;14.27;13.00;;;20.90;1.00;;;;;;5064715;28;20454;-70
2021/07/12 05:31:21;;;;;;;14.73;13.67;;;20.90;1.00;;;;;;5066607;28;21401;-69
2021/07/12 05:33:47;;;;;;;15.13;14.00;;;20.90;1.00;;;;;;5076774;27;21624;-78
2021/07/12 05:36:14;;;;;;;14.13;13.10;;;20.90;1.00;;;;;;5087056;28;20942;-79
2021/07/12 05:38:41;;;;;;;15.03;13.93;;;20.90;1.00;;;;;;5081116;28;20455;-78
2021/07/12 05:41:07;;;;;;;14.07;13.07;;;21.00;1.00;;;;;;5085808;28;20903;-78
2021/07/12 05:43:34;;;;;;;15.43;14.27;;;21.10;1.00;;;;;;5072678;28;20461;-78
2021/07/12 05:46:04;;;;;;;14.37;13.27;;;21.10;1.00;;;;;;5078110;28;20450;-78
2021/07/12 05:48:31;;;;;;;12.07;11.17;;;21.20;1.00;;;;;;5074225;28;20449;-78
2021/07/12 05:50:58;;;;;;;12.20;11.40;;;21.20;1.00;;;;;;5081358;28;20456;-78
2021/07/12 05:53:24;;;;;;;13.37;12.37;;;21.20;1.00;;;;;;5077901;28;20450;-79
2021/07/12 05:55:51;;;;;;;12.40;11.63;;;21.30;1.00;;;;;;5086313;28;20459;-78
2021/07/12 05:58:18;;;;;;;13.63;12.63;;;21.30;1.00;;;;;;5075950;28;20453;-78
2021/07/12 06:00:44;;;;;;;14.23;13.17;;;21.30;1.00;;;;;;5078355;28;20463;-78
2021/07/12 06:03:12;;;;;;;12.93;11.93;;;21.20;1.00;;;;;;5074297;28;20471;-79
2021/07/12 06:05:39;;;;;;;14.90;13.60;;;21.20;1.00;;;;;;5077827;28;20445;-79
2021/07/12 06:08:07;;;;;;;14.00;13.00;;;21.20;1.00;;;;;;5081378;28;21127;-78
2021/07/12 06:10:33;;;;;;;14.60;13.50;;;21.30;1.00;;;;;;5076860;28;20464;-78
2021/07/12 06:13:00;;;;;;;14.13;13.13;;;21.40;1.00;;;;;;5079749;28;20461;-80
2021/07/12 06:15:27;;;;;;;13.87;12.97;;;21.40;1.00;;;;;;5080231;28;20868;-78
2021/07/12 06:17:53;;;;;;;13.40;12.50;;;21.40;1.00;;;;;;5077684;28;21065;-79
2021/07/12 06:20:21;;;;;;;15.20;14.20;;;21.40;1.00;;;;;;5079812;28;20457;-78
2021/07/12 06:22:49;;;;;;;15.57;14.47;;;21.40;1.00;;;;;;5077050;28;20618;-79
2021/07/12 06:25:20;;;;;;;15.03;13.90;;;21.40;1.00;;;;;;5078781;28;21247;-78
2021/07/12 06:27:47;;;;;;;16.17;14.83;;;21.40;1.00;;;;;;5079909;28;20520;-79
2021/07/12 06:30:15;;;;;;;27.70;25.67;;;21.50;1.00;;;;;;5073773;28;20461;-77
2021/07/12 06:32:42;;;;;;;17.87;16.67;;;21.30;1.00;;;;;;5078326;28;20436;-77
2021/07/12 06:35:11;;;;;;;17.90;16.63;;;21.30;1.00;;;;;;5081026;28;20442;-77
2021/07/12 06:37:39;;;;;;;18.80;17.40;;;21.20;1.00;;;;;;5082030;28;21232;-77
2021/07/12 06:40:07;;;;;;;18.53;17.13;;;21.20;1.00;;;;;;5072816;28;20627;-77
2021/07/12 06:42:33;;;;;;;19.33;17.93;;;21.30;1.00;;;;;;5082531;27;21133;-79
2021/07/12 06:45:00;;;;;;;17.17;16.07;;;21.40;1.00;;;;;;5079987;28;20421;-79
2021/07/12 06:47:27;;;;;;;18.40;17.20;;;21.50;1.00;;;;;;5082655;28;20470;-77
2021/07/12 06:49:55;;;;;;;17.87;16.40;;;21.60;1.00;;;;;;5076279;28;20449;-78
2021/07/12 06:52:22;;;;;;;16.53;15.47;;;21.60;1.00;;;;;;5072793;28;20477;-77
2021/07/12 06:54:50;;;;;;;18.67;17.30;;;21.80;1.00;;;;;;5073822;28;20521;-78
2021/07/12 06:57:17;;;;;;;16.83;15.63;;;22.00;1.00;;;;;;5074743;28;20545;-78
2021/07/12 06:59:44;;;;;;;16.90;15.70;;;22.20;1.00;;;;;;5076261;28;20457;-78
2021/07/12 07:02:11;;;;;;;15.20;14.00;;;22.40;1.00;;;;;;5080937;28;20519;-80
2021/07/12 07:04:38;;;;;;;15.30;14.30;;;22.60;1.00;;;;;;5086965;28;20521;-78
2021/07/12 07:07:05;;;;;;;15.40;14.40;;;22.80;1.00;;;;;;5082916;28;20493;-79
2021/07/12 07:09:32;;;;;;;15.70;14.63;;;23.00;1.00;;;;;;5084938;28;20443;-79
2021/07/12 07:12:00;;;;;;;13.57;12.60;;;23.20;1.00;;;;;;5077556;28;20451;-78
2021/07/12 07:14:27;;;;;;;14.33;13.10;;;23.30;1.00;;;;;;5087172;28;20927;-78
2021/07/12 07:16:54;;;;;;;13.70;12.87;;;23.50;1.00;;;;;;5079544;28;20456;-78
2021/07/12 07:19:21;;;;;;;12.57;11.77;;;23.70;1.00;;;;;;5086026;28;20456;-78
2021/07/12 07:21:52;;;;;;;12.37;11.57;;;23.80;1.00;;;;;;5073834;28;20457;-78
2021/07/12 07:24:19;;;;;;;12.57;11.67;;;24.00;1.00;;;;;;5080075;28;20519;-78
2021/07/12 07:26:45;;;;;;;12.70;11.90;;;24.20;1.00;;;;;;5071680;28;20511;-78
2021/07/12 07:29:13;;;;;;;13.67;12.70;;;24.30;1.00;;;;;;5077688;28;20469;-79
2021/07/12 07:31:40;;;;;;;14.67;13.47;;;24.40;1.00;;;;;;5069541;28;20507;-79
2021/07/12 07:34:07;;;;;;;13.10;12.30;;;24.60;1.00;;;;;;5079294;28;22021;-78
2021/07/12 07:36:34;;;;;;;13.13;12.23;;;24.90;1.00;;;;;;5075517;28;20948;-79
2021/07/12 07:39:00;;;;;;;13.17;12.37;;;25.10;1.00;;;;;;5082561;28;20473;-78
2021/07/12 07:41:27;;;;;;;13.80;12.83;;;24.90;1.00;;;;;;5075812;28;20444;-79
2021/07/12 07:43:54;;;;;;;13.43;12.43;;;25.00;1.00;;;;;;5078363;28;20439;-78
2021/07/12 07:46:21;;;;;;;13.20;12.30;;;25.20;1.00;;;;;;5075667;28;20481;-79
2021/07/12 07:48:48;;;;;;;14.70;13.50;;;25.30;1.00;;;;;;5079333;28;20466;-78
2021/07/12 07:51:15;;;;;;;12.97;12.17;;;25.50;1.00;;;;;;5080257;28;22075;-79
2021/07/12 07:53:41;;;;;;;12.67;11.80;;;25.60;1.00;;;;;;5074683;28;20446;-80
2021/07/12 07:56:08;;;;;;;13.50;12.50;;;25.60;1.00;;;;;;5083131;28;20450;-79
2021/07/12 07:58:35;;;;;;;14.23;13.23;;;25.50;1.00;;;;;;5075380;28;20504;-78
2021/07/12 08:01:01;;;;;;;14.30;12.87;;;25.50;1.00;;;;;;5075382;28;20576;-79
2021/07/12 08:03:29;;;;;;;14.80;13.80;;;25.60;1.00;;;;;;5079522;28;20438;-80
2021/07/12 08:05:57;;;;;;;13.23;12.23;;;25.60;1.00;;;;;;5078190;28;20469;-80
2021/07/12 08:08:23;;;;;;;13.30;12.40;;;25.50;1.00;;;;;;5078072;27;20456;-78
2021/07/12 08:10:50;;;;;;;14.80;13.70;;;25.40;1.00;;;;;;5079553;28;21478;-79
2021/07/12 08:13:17;;;;;;;15.10;14.03;;;25.50;1.00;;;;;;5077598;28;20895;-77
2021/07/12 08:15:43;;;;;;;15.47;14.50;;;25.50;1.00;;;;;;5085219;28;20537;-77
2021/07/12 08:18:10;;;;;;;19.33;17.80;;;25.50;1.00;;;;;;5077987;28;21483;-79
2021/07/12 08:20:38;;;;;;;15.57;14.47;;;25.60;1.00;;;;;;5074415;28;20448;-81
2021/07/12 08:23:05;;;;;;;15.87;14.87;;;25.60;1.00;;;;;;5069792;28;23066;-78
2021/07/12 08:25:32;;;;;;;14.00;13.10;;;25.60;1.00;;;;;;5069739;28;20886;-79
2021/07/12 08:27:59;;;;;;;13.83;13.00;;;25.60;1.00;;;;;;5072466;28;20469;-78
2021/07/12 08:30:26;;;;;;;14.90;13.80;;;25.70;1.00;;;;;;5079867;28;20442;-77
2021/07/12 08:32:53;;;;;;;13.20;12.30;;;25.70;1.00;;;;;;5070602;28;20889;-79
2021/07/12 08:35:19;;;;;;;13.93;13.00;;;25.70;1.00;;;;;;5074742;28;20488;-78
2021/07/12 08:37:50;;;;;;;15.07;14.07;;;25.80;1.00;;;;;;5074556;28;20493;-79
2021/07/12 08:40:18;;;;;;;16.07;14.77;;;25.80;1.00;;;;;;5073595;28;20480;-77
2021/07/12 08:42:45;;;;;;;15.33;14.43;;;25.90;1.00;;;;;;5069593;28;21119;-78
2021/07/12 08:45:13;;;;;;;15.67;14.50;;;25.90;1.00;;;;;;5073679;28;20935;-78
2021/07/12 08:47:40;;;;;;;12.77;11.80;;;26.00;1.00;;;;;;5073900;28;20450;-77
2021/07/12 08:50:07;;;;;;;14.50;13.50;;;26.00;1.00;;;;;;5081392;28;20430;-78
2021/07/12 08:52:34;;;;;;;13.33;12.40;;;26.10;1.00;;;;;;5079670;28;20979;-77
2021/07/12 08:55:03;;;;;;;13.53;12.57;;;26.40;1.00;;;;;;5073988;28;20458;-80
2021/07/12 08:57:30;;;;;;;16.43;15.33;;;26.40;1.00;;;;;;5076950;28;20446;-80
2021/07/12 08:59:57;;;;;;;15.57;14.47;;;26.40;1.00;;;;;;5072484;28;20467;-78
2021/07/12 09:02:24;;;;;;;15.00;14.00;;;26.70;1.00;;;;;;5073396;28;21283;-78
2021/07/12 09:04:53;;;;;;;16.00;15.00;;;26.80;1.00;;;;;;5072884;28;21058;-79
2021/07/12 09:07:21;;;;;;;15.17;14.20;;;26.80;1.00;;;;;;5083836;28;20535;-79
2021/07/12 09:09:58;;;;;;;16.97;15.70;;;27.00;1.00;;;;;;5078492;28;21186;-79
2021/07/12 09:12:40;;;;;;;17.07;15.90;;;26.70;1.00;;;;;;5080555;28;20545;-79
2021/07/12 09:15:08;;;;;;;15.03;13.83;;;26.60;1.00;;;;;;5075634;28;20463;-78
2021/07/12 09:17:37;;;;;;;14.63;13.60;;;26.50;1.00;;;;;;5079288;28;20447;-78
2021/07/12 09:20:06;;;;;;;14.90;14.00;;;26.60;1.00;;;;;;5077896;28;20630;-79
2021/07/12 09:22:34;;;;;;;15.47;14.37;;;26.90;1.00;;;;;;5090290;27;21090;-80
2021/07/12 09:25:04;;;;;;;14.90;13.73;;;27.20;1.00;;;;;;5076567;28;21294;-78
2021/07/12 09:27:33;;;;;;;14.13;13.20;;;27.40;1.00;;;;;;5076707;28;20990;-78
2021/07/12 09:30:01;;;;;;;13.43;12.53;;;27.40;1.00;;;;;;5077077;28;20400;-80
2021/07/12 09:32:30;;;;;;;14.33;13.33;;;27.30;1.00;;;;;;5082258;28;20459;-79
2021/07/12 09:35:01;;;;;;;13.50;12.60;;;27.60;1.00;;;;;;5078749;28;20440;-80
2021/07/12 09:37:29;;;;;;;12.67;11.87;;;27.90;1.00;;;;;;5092717;28;20429;-80
2021/07/12 09:39:56;;;;;;;13.60;12.70;;;28.10;1.00;;;;;;5101956;28;20458;-78
2021/07/12 09:42:25;;;;;;;11.77;11.07;;;28.50;1.00;;;;;;5079606;27;20445;-78
2021/07/12 09:44:57;;;;;;;11.80;10.80;;;28.80;1.00;;;;;;5075776;28;20468;-79
2021/07/12 09:47:25;;;;;;;10.23;9.60;;;29.70;1.00;;;;;;5077478;28;20454;-79
2021/07/12 09:50:00;;;;;;;11.90;11.10;;;30.70;1.00;;;;;;5074730;28;20447;-80
2021/07/12 09:52:26;;;;;;;11.60;10.90;;;30.60;1.00;;;;;;5076389;28;20587;-78
2021/07/12 09:54:53;;;;;;;11.97;11.07;;;29.70;1.00;;;;;;5078767;28;20568;-79
2021/07/12 09:57:21;;;;;;;11.53;10.93;;;29.00;1.00;;;;;;5076909;28;20819;-80
2021/07/12 09:59:55;;;;;;;11.40;10.60;;;29.40;1.00;;;;;;5088521;28;20454;-82
2021/07/12 10:02:24;;;;;;;11.43;10.63;;;30.50;1.00;;;;;;5079410;28;22567;-77
2021/07/12 10:04:57;;;;;;;10.30;9.70;;;31.00;1.00;;;;;;5077232;28;20468;-79
2021/07/12 10:07:24;;;;;;;12.27;11.37;;;31.90;1.00;;;;;;5077781;28;20529;-79
2021/07/12 10:09:51;;;;;;;12.20;11.40;;;32.20;1.00;;;;;;5075432;28;20468;-79
2021/07/12 10:12:18;;;;;;;10.33;9.60;;;32.10;1.00;;;;;;5079436;28;20529;-77
2021/07/12 10:14:44;;;;;;;11.03;10.37;;;32.60;1.00;;;;;;5075681;28;20457;-78
2021/07/12 10:17:14;;;;;;;9.70;9.13;;;33.30;1.00;;;;;;5082186;28;20464;-78
2021/07/12 10:19:43;;;;;;;10.23;9.70;;;33.50;1.00;;;;;;5077736;28;21641;-77
2021/07/12 10:22:13;;;;;;;10.50;9.80;;;34.00;1.00;;;;;;5076910;28;20493;-80
2021/07/12 10:24:41;;;;;;;11.40;10.50;;;33.60;1.00;;;;;;5080719;28;20463;-81
2021/07/12 10:27:21;;;;;;;10.90;10.20;;;32.80;1.00;;;;;;5081701;28;20544;-81
2021/07/12 10:29:48;;;;;;;12.67;11.80;;;31.90;1.00;;;;;;5078055;28;20414;-80
2021/07/12 10:32:19;;;;;;;11.57;10.33;;;31.70;1.00;;;;;;5085402;28;20465;-83
2021/07/12 10:34:47;;;;;;;12.33;11.30;;;31.20;1.00;;;;;;5078319;28;20449;-78
2021/07/12 10:37:29;;;;;;;11.00;10.40;;;30.40;1.00;;;;;;5078122;28;20461;-80
2021/07/12 10:40:11;;;;;;;11.03;10.03;;;29.80;1.00;;;;;;5081222;28;20511;-79
2021/07/12 10:42:51;;;;;;;9.70;9.10;;;29.60;1.00;;;;;;5074069;28;20432;-79
2021/07/12 10:45:20;;;;;;;10.97;10.00;;;30.70;1.00;;;;;;5087349;28;20636;-80
2021/07/12 10:47:50;;;;;;;10.20;9.60;;;31.40;1.00;;;;;;5081557;28;20453;-80
2021/07/12 10:50:40;;;;;;;10.57;9.97;;;30.90;1.00;;;;;;5083129;28;20434;-80
2021/07/12 10:53:45;;;;;;;10.80;10.20;;;30.00;1.00;;;;;;5083689;28;20839;-81
2021/07/12 10:56:17;;;;;;;12.13;11.27;;;29.20;1.00;;;;;;5081906;28;20528;-79
2021/07/12 10:58:51;;;;;;;12.40;11.40;;;29.00;1.00;;;;;;5068113;28;20469;-79
2021/07/12 11:01:46;;;;;;;12.40;11.67;;;28.70;1.00;;;;;;5076323;28;20566;-78
2021/07/12 11:04:39;;;;;;;11.10;10.30;;;28.70;1.00;;;;;;5076813;28;21048;-79
2021/07/12 11:07:08;;;;;;;11.07;10.37;;;30.60;1.00;;;;;;5077977;28;20467;-80
2021/07/12 11:09:53;;;;;;;11.40;10.60;;;32.60;1.00;;;;;;5089011;28;20456;-79
2021/07/12 11:12:31;;;;;;;11.40;10.40;;;32.30;1.00;;;;;;5082301;28;20453;-79
2021/07/12 11:15:16;;;;;;;12.67;11.87;;;31.10;1.00;;;;;;5075727;28;20439;-80
2021/07/12 11:18:03;;;;;;;12.60;11.70;;;29.70;1.00;;;;;;5080812;28;21043;-79
2021/07/12 11:21:02;;;;;;;12.30;11.43;;;29.10;1.00;;;;;;5079077;28;20483;-79
2021/07/12 11:23:51;;;;;;;12.03;11.33;;;29.00;1.00;;;;;;5030874;28;20459;-78
2021/07/12 11:26:42;;;;;;;11.00;10.03;;;30.90;1.00;;;;;;5071691;28;20519;-80
2021/07/12 11:29:17;;;;;;;11.30;10.60;;;32.50;1.00;;;;;;5079129;28;20462;-81
2021/07/12 11:31:45;;;;;;;10.80;9.90;;;33.70;1.00;;;;;;5078689;28;20455;-79
2021/07/12 11:34:18;;;;;;;9.90;9.30;;;34.50;1.00;;;;;;5073545;28;20450;-78
2021/07/12 11:36:54;;;;;;;11.57;10.67;;;34.80;1.00;;;;;;5077130;28;20457;-77
2021/07/12 11:39:24;;;;;;;9.97;9.20;;;34.50;1.00;;;;;;5074135;28;20451;-78
2021/07/12 11:41:51;;;;;;;10.83;10.13;;;35.20;1.00;;;;;;5073331;28;20455;-79
2021/07/12 11:44:19;;;;;;;11.33;10.73;;;35.50;1.00;;;;;;5079334;28;20454;-79
2021/07/12 11:46:46;;;;;;;10.53;9.93;;;34.40;1.00;;;;;;5083230;28;20454;-79
2021/07/12 11:49:15;;;;;;;12.20;11.40;;;33.80;1.00;;;;;;5076848;28;20466;-77
2021/07/12 11:51:43;;;;;;;10.60;10.00;;;34.00;1.00;;;;;;5080032;28;20455;-77
2021/07/12 11:54:18;;;;;;;11.57;10.87;;;34.10;1.00;;;;;;5074849;28;20473;-80
2021/07/12 11:57:00;;;;;;;10.50;9.90;;;33.50;1.00;;;;;;5077107;28;20430;-78
2021/07/12 11:59:29;;;;;;;11.50;10.73;;;32.80;1.00;;;;;;5074552;28;20462;-80
2021/07/12 12:02:07;;;;;;;11.03;10.33;;;33.20;1.00;;;;;;5077611;28;20456;-78
2021/07/12 12:04:51;;;;;;;11.50;10.80;;;33.40;1.00;;;;;;5073755;28;20449;-77
2021/07/12 12:07:26;;;;;;;11.13;10.43;;;33.00;1.00;;;;;;5076626;28;20441;-77
2021/07/12 12:09:56;;;;;;;11.20;10.50;;;34.20;1.00;;;;;;5073595;28;20688;-78
2021/07/12 12:12:28;;;;;;;11.20;10.50;;;34.20;1.00;;;;;;5074605;28;20467;-77
2021/07/12 12:15:00;;;;;;;11.13;10.53;;;33.50;1.00;;;;;;5077560;28;20442;-79
2021/07/12 12:17:27;;;;;;;10.83;10.20;;;32.80;1.00;;;;;;5071207;28;20458;-79
2021/07/12 12:20:22;;;;;;;11.30;10.60;;;33.00;1.00;;;;;;5079706;28;21780;-78
2021/07/12 12:23:05;;;;;;;10.10;9.30;;;34.90;1.00;;;;;;5057469;28;20441;-80
2021/07/12 12:25:36;;;;;;;10.20;9.60;;;36.40;1.00;;;;;;5079016;28;20430;-77
2021/07/12 12:28:05;;;;;;;10.63;9.93;;;36.90;1.00;;;;;;5075257;28;20441;-80
2021/07/12 12:30:33;;;;;;;9.70;9.20;;;36.80;1.00;;;;;;5074166;28;20481;-79
2021/07/12 12:33:01;;;;;;;10.70;10.00;;;36.90;1.00;;;;;;5073318;28;21359;-80
2021/07/12 12:35:30;;;;;;;9.30;8.80;;;37.10;1.00;;;;;;5076848;28;20455;-79
2021/07/12 12:38:10;;;;;;;9.60;9.00;;;36.80;1.00;;;;;;5077374;28;22554;-78
2021/07/12 12:40:38;;;;;;;9.90;9.30;;;36.80;1.00;;;;;;5075260;28;20446;-78
2021/07/12 12:43:12;;;;;;;10.50;9.80;;;36.10;1.00;;;;;;5079648;28;20477;-79
2021/07/12 12:45:45;;;;;;;11.07;10.27;;;36.20;1.00;;;;;;5078610;28;20431;-78
2021/07/12 12:48:12;;;;;;;10.40;9.80;;;35.60;1.00;;;;;;5088521;28;20458;-79
2021/07/12 12:50:39;;;;;;;11.50;10.90;;;34.60;1.00;;;;;;5095307;28;20439;-78
2021/07/12 12:53:07;;;;;;;10.57;9.87;;;34.50;1.00;;;;;;5086984;28;20454;-81
2021/07/12 12:55:35;;;;;;;9.37;8.77;;;35.60;1.00;;;;;;5078341;28;20446;-82